Time;durP1;ratioP1;P1;durP2;ratioP2;P2;SDS_P1;SDS_P2;PMS_P1;PMS_P2;Temp;Humidity;BMP_temperature;BMP_pressure;BME280_temperature;BME280_humidity;BME280_pressure;Samples;Min_cycle;Max_cycle;Signal;HPM_P1;HPM_P2
2022/05/27 00:01:18;;;;;;;3.28;1.50;;;;;;;;;;5010241;28;20036;-72
2022/05/27 00:03:43;;;;;;;4.22;1.40;;;;;;;;;;5008933;28;20088;-73
2022/05/27 00:06:09;;;;;;;4.00;1.50;;;;;;;;;;5010003;28;20550;-69
2022/05/27 00:08:35;;;;;;;2.72;1.60;;;;;;;;;;5010203;28;20022;-69
2022/05/27 00:11:01;;;;;;;3.38;1.50;;;;;;;;;;5010600;28;20018;-67
2022/05/27 00:13:28;;;;;;;4.82;1.70;;;;;;;;;;5009857;28;20401;-67
2022/05/27 00:15:53;;;;;;;5.95;1.60;;;;;;;;;;5009869;28;20390;-73
2022/05/27 00:18:19;;;;;;;4.22;1.63;;;;;;;;;;5010203;28;20079;-73
2022/05/27 00:20:45;;;;;;;5.95;1.63;;;;;;;;;;5009749;28;20269;-71
2022/05/27 00:23:11;;;;;;;4.60;1.77;;;;;;;;;;5013462;28;20283;-72
2022/05/27 00:25:36;;;;;;;3.88;1.63;;;;;;;;;;5014023;28;20551;-71
2022/05/27 00:28:02;;;;;;;4.55;1.70;;;;;;;;;;5014214;28;20026;-71
2022/05/27 00:30:28;;;;;;;4.22;1.70;;;;;;;;;;5014094;28;20398;-73
2022/05/27 00:32:53;;;;;;;5.68;1.58;;;;;;;;;;5013695;28;20026;-67
2022/05/27 00:35:19;;;;;;;5.75;1.83;;;;;;;;;;5013825;28;20029;-74
2022/05/27 00:37:45;;;;;;;4.28;1.60;;;;;;;;;;5012466;28;20026;-69
2022/05/27 00:40:11;;;;;;;7.15;1.80;;;;;;;;;;5013861;28;20036;-67
2022/05/27 00:42:41;;;;;;;5.70;1.67;;;;;;;;;;5012386;28;20063;-72
2022/05/27 00:45:13;;;;;;;3.37;1.70;;;;;;;;;;5013889;28;20425;-66
2022/05/27 00:47:39;;;;;;;6.03;2.10;;;;;;;;;;5013662;28;20030;-68
2022/05/27 00:50:08;;;;;;;3.78;1.45;;;;;;;;;;5013491;28;20032;-67
2022/05/27 00:52:37;;;;;;;4.67;1.57;;;;;;;;;;5013326;28;20646;-68
2022/05/27 00:55:07;;;;;;;3.95;1.60;;;;;;;;;;5013359;28;20269;-72
2022/05/27 00:57:39;;;;;;;4.55;1.65;;;;;;;;;;5013818;28;20054;-72
2022/05/27 01:00:12;;;;;;;2.97;1.58;;;;;;;;;;5013478;28;20072;-70
2022/05/27 01:02:38;;;;;;;6.25;1.70;;;;;;;;;;5013179;28;20037;-70
2022/05/27 01:05:06;;;;;;;3.35;1.40;;;;;;;;;;5013595;28;20034;-72
2022/05/27 01:07:32;;;;;;;4.75;1.50;;;;;;;;;;5013060;28;20029;-65
2022/05/27 01:09:58;;;;;;;3.40;1.40;;;;;;;;;;5013071;28;20030;-71
2022/05/27 01:12:47;;;;;;;3.50;1.50;;;;;;;;;;5013168;28;20056;-74
2022/05/27 01:15:23;;;;;;;5.38;1.58;;;;;;;;;;5013075;28;20444;-71
2022/05/27 01:18:07;;;;;;;4.07;1.67;;;;;;;;;;5013180;28;20018;-73
2022/05/27 01:21:06;;;;;;;3.40;1.60;;;;;;;;;;5012873;28;20053;-73
2022/05/27 01:23:56;;;;;;;5.20;1.70;;;;;;;;;;5012797;28;20033;-67
2022/05/27 01:26:30;;;;;;;4.45;1.50;;;;;;;;;;5012991;28;20066;-72
2022/05/27 01:29:16;;;;;;;4.18;1.60;;;;;;;;;;5012823;28;20101;-68
2022/05/27 01:31:54;;;;;;;3.67;1.63;;;;;;;;;;5001612;28;20080;-67
2022/05/27 01:34:39;;;;;;;3.63;1.88;;;;;;;;;;5011618;28;20030;-72
2022/05/27 01:37:20;;;;;;;7.22;1.60;;;;;;;;;;5012894;28;20478;-70
2022/05/27 01:40:07;;;;;;;4.93;1.60;;;;;;;;;;5012864;28;20084;-72
2022/05/27 01:42:55;;;;;;;4.68;1.70;;;;;;;;;;5012296;28;20034;-74
2022/05/27 01:45:32;;;;;;;4.82;1.83;;;;;;;;;;5011060;28;20436;-74
2022/05/27 01:48:20;;;;;;;4.53;1.70;;;;;;;;;;5012807;28;20228;-71
2022/05/27 01:50:57;;;;;;;4.22;1.63;;;;;;;;;;5013050;28;20179;-71
2022/05/27 01:53:31;;;;;;;5.28;1.75;;;;;;;;;;5012174;28;20037;-69
2022/05/27 01:56:11;;;;;;;3.72;1.55;;;;;;;;;;5012916;28;20087;-67
2022/05/27 01:58:42;;;;;;;5.15;1.58;;;;;;;;;;5012237;28;20030;-74
2022/05/27 02:01:13;;;;;;;3.83;1.48;;;;;;;;;;5012277;28;20153;-72
2022/05/27 02:03:51;;;;;;;4.53;1.55;;;;;;;;;;5012048;28;20068;-67
2022/05/27 02:06:34;;;;;;;4.95;1.67;;;;;;;;;;5012091;28;20034;-70
2022/05/27 02:09:05;;;;;;;4.88;1.60;;;;;;;;;;5012081;28;20038;-72
2022/05/27 02:11:31;;;;;;;4.18;1.70;;;;;;;;;;5012162;28;20022;-72
2022/05/27 02:13:59;;;;;;;3.72;1.60;;;;;;;;;;5012009;28;20152;-71
2022/05/27 02:16:33;;;;;;;3.50;1.45;;;;;;;;;;5011996;28;20025;-70
2022/05/27 02:19:04;;;;;;;4.57;1.63;;;;;;;;;;5012050;28;20087;-68
2022/05/27 02:21:36;;;;;;;3.35;1.70;;;;;;;;;;5011352;28;20057;-70
2022/05/27 02:24:15;;;;;;;5.68;1.67;;;;;;;;;;5011697;28;20104;-74
2022/05/27 02:26:46;;;;;;;4.03;1.48;;;;;;;;;;5011838;28;20064;-74
2022/05/27 02:29:17;;;;;;;2.97;1.42;;;;;;;;;;5011725;28;20054;-70
2022/05/27 02:31:49;;;;;;;5.32;1.60;;;;;;;;;;5011692;28;20034;-70
2022/05/27 02:37:23;;;;;;;4.18;1.38;;;;;;;;;;5011580;28;20390;-73
2022/05/27 02:39:48;;;;;;;5.70;1.40;;;;;;;;;;5011893;28;20030;-68
2022/05/27 02:42:28;;;;;;;3.30;1.40;;;;;;;;;;5011428;28;20034;-67
2022/05/27 02:44:53;;;;;;;2.92;1.60;;;;;;;;;;5011430;28;20041;-72
2022/05/27 02:47:24;;;;;;;6.68;1.70;;;;;;;;;;5011560;28;20048;-73
2022/05/27 02:49:50;;;;;;;3.55;1.60;;;;;;;;;;5011419;28;20026;-70
2022/05/27 02:53:01;;;;;;;5.05;1.70;;;;;;;;;;5011314;28;20026;-69
2022/05/27 02:55:35;;;;;;;7.07;2.05;;;;;;;;;;5001021;28;20042;-71
2022/05/27 02:58:02;;;;;;;6.82;2.20;;;;;;;;;;5011250;28;20104;-71
2022/05/27 03:00:31;;;;;;;5.07;2.33;;;;;;;;;;5011318;28;20077;-73
2022/05/27 03:02:59;;;;;;;5.57;2.08;;;;;;;;;;5011032;28;20030;-72
2022/05/27 03:05:30;;;;;;;5.60;2.08;;;;;;;;;;5011195;28;20555;-69
2022/05/27 03:08:17;;;;;;;5.57;1.90;;;;;;;;;;5011329;28;20068;-68
2022/05/27 03:11:09;;;;;;;3.25;1.60;;;;;;;;;;5011006;28;20041;-71
2022/05/27 03:14:08;;;;;;;4.30;1.80;;;;;;;;;;5009503;28;20373;-66
2022/05/27 03:16:56;;;;;;;4.00;1.65;;;;;;;;;;5010990;28;20418;-72
2022/05/27 03:19:24;;;;;;;4.35;1.48;;;;;;;;;;5011099;28;20260;-68
2022/05/27 03:22:08;;;;;;;4.07;1.65;;;;;;;;;;5010668;28;20045;-71
2022/05/27 03:25:04;;;;;;;4.68;1.58;;;;;;;;;;5010628;28;20486;-68
2022/05/27 03:27:39;;;;;;;6.90;1.70;;;;;;;;;;5010802;28;20044;-70
2022/05/27 03:30:31;;;;;;;5.00;1.70;;;;;;;;;;5010580;28;20038;-72
2022/05/27 03:33:00;;;;;;;3.97;1.50;;;;;;;;;;5007440;28;20046;-70
2022/05/27 03:35:35;;;;;;;4.57;1.50;;;;;;;;;;5010573;28;20102;-67
2022/05/27 03:38:12;;;;;;;6.32;1.70;;;;;;;;;;5011059;28;20037;-74
2022/05/27 03:41:04;;;;;;;4.97;1.70;;;;;;;;;;5010492;28;20486;-73
2022/05/27 03:43:32;;;;;;;4.80;1.60;;;;;;;;;;5010122;28;20499;-73
2022/05/27 03:46:00;;;;;;;6.13;1.50;;;;;;;;;;5010617;28;20057;-67
2022/05/27 03:48:28;;;;;;;4.22;1.63;;;;;;;;;;5010523;28;20036;-68
2022/05/27 03:50:58;;;;;;;6.15;1.80;;;;;;;;;;5010229;28;20022;-70
2022/05/27 03:54:03;;;;;;;3.77;1.70;;;;;;;;;;5010527;28;20034;-73
2022/05/27 03:56:09;;;;;;;3.25;1.80;;;;;;;;;;5009566;28;20502;-67
2022/05/27 03:58:35;;;;;;;3.35;1.80;;;;;;;;;;5010273;28;20048;-72
2022/05/27 04:01:00;;;;;;;3.80;1.83;;;;;;;;;;5010452;28;20026;-67
2022/05/27 04:03:26;;;;;;;5.35;1.92;;;;;;;;;;5009878;28;20030;-67
2022/05/27 04:05:51;;;;;;;4.50;2.20;;;;;;;;;;5010069;28;20018;-66
2022/05/27 04:08:16;;;;;;;5.70;2.35;;;;;;;;;;5010226;28;20095;-70
2022/05/27 04:10:42;;;;;;;4.78;2.30;;;;;;;;;;5010328;28;20026;-71
2022/05/27 04:13:07;;;;;;;6.13;2.60;;;;;;;;;;5010488;28;20568;-67
2022/05/27 04:15:33;;;;;;;3.75;2.17;;;;;;;;;;5010136;28;20382;-67
2022/05/27 04:17:58;;;;;;;5.32;2.05;;;;;;;;;;5010440;28;20026;-73
2022/05/27 04:20:24;;;;;;;7.88;2.15;;;;;;;;;;5009889;28;20062;-72
2022/05/27 04:22:55;;;;;;;6.72;1.95;;;;;;;;;;5010045;28;20057;-72
2022/05/27 04:25:21;;;;;;;7.45;2.13;;;;;;;;;;5010209;28;20022;-67
2022/05/27 04:27:46;;;;;;;4.60;2.00;;;;;;;;;;5010253;28;20129;-73
2022/05/27 04:30:13;;;;;;;7.05;1.90;;;;;;;;;;5010277;28;20053;-73
2022/05/27 04:32:39;;;;;;;5.30;2.00;;;;;;;;;;5010144;28;20489;-72
2022/05/27 04:35:06;;;;;;;6.22;1.95;;;;;;;;;;5009989;28;20022;-72
2022/05/27 04:37:32;;;;;;;7.32;2.00;;;;;;;;;;5010053;28;20549;-73
2022/05/27 04:39:58;;;;;;;5.32;1.83;;;;;;;;;;5009709;28;20106;-73
2022/05/27 04:42:24;;;;;;;4.15;1.73;;;;;;;;;;5010068;28;20029;-73
2022/05/27 04:44:49;;;;;;;4.50;1.80;;;;;;;;;;5009883;28;20076;-68
2022/05/27 04:47:15;;;;;;;3.58;1.63;;;;;;;;;;5009962;28;20029;-72
2022/05/27 04:49:56;;;;;;;4.80;1.70;;;;;;;;;;5010052;28;20024;-69
2022/05/27 04:52:25;;;;;;;4.45;1.80;;;;;;;;;;5010138;28;20098;-74
2022/05/27 04:54:51;;;;;;;5.95;1.70;;;;;;;;;;5010033;28;20184;-73
2022/05/27 04:57:20;;;;;;;6.22;1.70;;;;;;;;;;5009657;28;20486;-73
2022/05/27 04:59:46;;;;;;;4.68;1.67;;;;;;;;;;5009814;28;20075;-73
2022/05/27 05:02:14;;;;;;;3.95;1.88;;;;;;;;;;5009647;28;20029;-71
2022/05/27 05:04:39;;;;;;;4.25;1.40;;;;;;;;;;5009827;28;20030;-73
2022/05/27 05:07:08;;;;;;;5.55;1.65;;;;;;;;;;5009860;28;20045;-73
2022/05/27 05:09:35;;;;;;;8.38;1.55;;;;;;;;;;5013629;28;20014;-72
2022/05/27 05:12:00;;;;;;;6.47;1.75;;;;;;;;;;5011897;28;20573;-72
2022/05/27 05:14:25;;;;;;;5.47;1.70;;;;;;;;;;5012032;28;20585;-73
2022/05/27 05:16:52;;;;;;;2.47;1.38;;;;;;;;;;5013329;28;20030;-72
2022/05/27 05:19:17;;;;;;;3.63;1.80;;;;;;;;;;5013479;28;20047;-74
2022/05/27 05:21:43;;;;;;;4.43;1.65;;;;;;;;;;5011494;28;20476;-71
2022/05/27 05:24:08;;;;;;;5.43;1.80;;;;;;;;;;5013194;28;20101;-70
2022/05/27 05:26:33;;;;;;;4.65;1.70;;;;;;;;;;5013095;28;20216;-73
2022/05/27 05:28:59;;;;;;;4.75;1.55;;;;;;;;;;5012903;28;20189;-73
2022/05/27 05:31:24;;;;;;;4.35;1.98;;;;;;;;;;5012914;28;20029;-74
2022/05/27 05:33:50;;;;;;;4.28;1.65;;;;;;;;;;5012877;28;20433;-74
2022/05/27 05:36:15;;;;;;;3.78;1.60;;;;;;;;;;5012948;28;20060;-71
2022/05/27 05:38:41;;;;;;;4.20;1.52;;;;;;;;;;5012736;28;20026;-74
2022/05/27 05:41:06;;;;;;;4.35;1.65;;;;;;;;;;5012795;28;20056;-71
2022/05/27 05:43:33;;;;;;;6.15;1.83;;;;;;;;;;5011142;28;20247;-72
2022/05/27 05:45:59;;;;;;;5.22;1.70;;;;;;;;;;5012840;28;20397;-74
2022/05/27 05:48:24;;;;;;;5.45;2.08;;;;;;;;;;5012900;28;20029;-72
2022/05/27 05:50:50;;;;;;;5.03;2.05;;;;;;;;;;5012524;28;20402;-71
2022/05/27 05:53:19;;;;;;;4.60;1.70;;;;;;;;;;5012592;28;20056;-73
2022/05/27 05:55:44;;;;;;;6.47;2.35;;;;;;;;;;5012408;28;20030;-74
2022/05/27 05:58:10;;;;;;;3.85;1.70;;;;;;;;;;5012522;28;20018;-71
2022/05/27 06:00:35;;;;;;;6.63;1.60;;;;;;;;;;5012411;28;20084;-68
2022/05/27 06:03:01;;;;;;;4.18;1.70;;;;;;;;;;5012126;28;20052;-72
2022/05/27 06:05:26;;;;;;;4.53;1.80;;;;;;;;;;5012126;28;20029;-70
2022/05/27 06:07:52;;;;;;;7.85;2.00;;;;;;;;;;5012266;28;20485;-67
2022/05/27 06:10:19;;;;;;;5.00;1.80;;;;;;;;;;5012128;28;20033;-69
2022/05/27 06:12:45;;;;;;;4.20;1.55;;;;;;;;;;5012280;28;20493;-68
2022/05/27 06:15:12;;;;;;;12.85;2.15;;;;;;;;;;5012053;28;20084;-67
2022/05/27 06:17:38;;;;;;;5.22;2.03;;;;;;;;;;5012166;28;20037;-67
2022/05/27 06:20:07;;;;;;;4.15;1.67;;;;;;;;;;5011006;28;20026;-73
2022/05/27 06:22:32;;;;;;;3.55;1.73;;;;;;;;;;5011834;28;20164;-71
2022/05/27 06:24:59;;;;;;;5.75;1.83;;;;;;;;;;5011569;28;20113;-72
2022/05/27 06:27:25;;;;;;;5.00;1.75;;;;;;;;;;5011749;28;20030;-67
2022/05/27 06:35:19;;;;;;;4.72;1.75;;;;;;;;;;5011441;28;20453;-67
2022/05/27 06:37:44;;;;;;;4.82;1.80;;;;;;;;;;5011243;28;20033;-66
2022/05/27 06:40:11;;;;;;;4.55;1.60;;;;;;;;;;5011326;28;20396;-66
2022/05/27 06:42:37;;;;;;;3.70;1.60;;;;;;;;;;5011543;28;20486;-67
2022/05/27 06:45:08;;;;;;;5.10;1.70;;;;;;;;;;5011731;28;20050;-70
2022/05/27 06:47:33;;;;;;;4.78;1.50;;;;;;;;;;5011387;28;20037;-66
2022/05/27 06:49:59;;;;;;;3.83;1.40;;;;;;;;;;5011517;28;20025;-68
2022/05/27 06:52:25;;;;;;;3.03;1.40;;;;;;;;;;5011034;28;20385;-68
2022/05/27 06:54:51;;;;;;;5.65;1.90;;;;;;;;;;5011143;28;20053;-72
2022/05/27 06:57:17;;;;;;;6.38;1.65;;;;;;;;;;5011011;28;20185;-69
2022/05/27 06:59:42;;;;;;;5.18;1.63;;;;;;;;;;5011726;28;20110;-68
2022/05/27 07:02:09;;;;;;;5.07;1.80;;;;;;;;;;5011190;28;20589;-73
2022/05/27 07:04:34;;;;;;;5.22;1.85;;;;;;;;;;5011246;28;20029;-66
2022/05/27 07:07:04;;;;;;;6.20;1.40;;;;;;;;;;5010990;28;20440;-67
2022/05/27 07:09:31;;;;;;;4.68;1.50;;;;;;;;;;5011274;28;20022;-67
2022/05/27 07:11:57;;;;;;;5.13;1.95;;;;;;;;;;5010905;28;20038;-67
2022/05/27 07:14:23;;;;;;;5.22;1.60;;;;;;;;;;5010782;28;20024;-67
2022/05/27 07:16:48;;;;;;;4.47;1.65;;;;;;;;;;5011287;28;20109;-66
2022/05/27 07:19:14;;;;;;;5.63;1.88;;;;;;;;;;5010790;28;20030;-68
2022/05/27 07:21:46;;;;;;;5.00;1.80;;;;;;;;;;5010499;28;20037;-67
2022/05/27 07:24:14;;;;;;;7.53;1.75;;;;;;;;;;5010695;28;20034;-68
2022/05/27 07:26:41;;;;;;;3.85;1.58;;;;;;;;;;5010741;28;20507;-69
2022/05/27 07:29:07;;;;;;;4.25;1.52;;;;;;;;;;5010549;28;20036;-67
2022/05/27 07:31:35;;;;;;;4.88;1.60;;;;;;;;;;5010506;28;20509;-72
2022/05/27 07:34:00;;;;;;;6.40;1.80;;;;;;;;;;5010519;28;20105;-67
2022/05/27 07:36:26;;;;;;;3.45;1.60;;;;;;;;;;5010083;28;20110;-72
2022/05/27 07:38:52;;;;;;;4.63;1.85;;;;;;;;;;5010797;28;20393;-68
2022/05/27 07:41:19;;;;;;;5.10;1.58;;;;;;;;;;5010649;28;20105;-73
2022/05/27 07:43:45;;;;;;;5.43;1.65;;;;;;;;;;5010353;28;20485;-72
2022/05/27 07:46:12;;;;;;;3.58;1.42;;;;;;;;;;5010292;28;20104;-72
2022/05/27 07:48:37;;;;;;;5.47;1.60;;;;;;;;;;5010458;28;20028;-68
2022/05/27 07:51:03;;;;;;;5.90;1.60;;;;;;;;;;5010221;28;20025;-69
2022/05/27 07:53:28;;;;;;;4.30;1.67;;;;;;;;;;5010440;28;20119;-72
2022/05/27 07:55:54;;;;;;;5.85;1.80;;;;;;;;;;5010260;28;20033;-72
2022/05/27 07:58:19;;;;;;;4.40;1.30;;;;;;;;;;5010620;28;20500;-70
2022/05/27 08:00:45;;;;;;;4.97;1.60;;;;;;;;;;5010422;28;20396;-67
2022/05/27 08:03:11;;;;;;;4.20;1.50;;;;;;;;;;5009957;28;20030;-73
2022/05/27 08:05:38;;;;;;;5.55;1.52;;;;;;;;;;5009879;28;20076;-68
2022/05/27 08:08:04;;;;;;;5.05;1.58;;;;;;;;;;5010326;28;20512;-71
2022/05/27 08:10:33;;;;;;;7.60;1.83;;;;;;;;;;5010142;28;20026;-68
2022/05/27 08:12:59;;;;;;;4.22;1.65;;;;;;;;;;5010232;28;20608;-72
2022/05/27 08:15:25;;;;;;;3.95;1.60;;;;;;;;;;5009831;28;20037;-71
2022/05/27 08:17:51;;;;;;;5.78;1.52;;;;;;;;;;5009098;28;20033;-72
2022/05/27 08:20:21;;;;;;;4.25;1.42;;;;;;;;;;5010039;28;20453;-73
2022/05/27 08:22:53;;;;;;;3.80;1.48;;;;;;;;;;5009832;28;20081;-70
2022/05/27 08:25:20;;;;;;;4.25;1.45;;;;;;;;;;5009654;28;20482;-68
2022/05/27 08:27:45;;;;;;;4.28;1.50;;;;;;;;;;5010077;28;20030;-70
2022/05/27 08:30:14;;;;;;;7.43;1.70;;;;;;;;;;5009924;28;20375;-73
2022/05/27 08:32:39;;;;;;;4.72;1.30;;;;;;;;;;5010124;28;20034;-72
2022/05/27 08:38:06;;;;;;;3.55;1.38;;;;;;;;;;5010159;28;20068;-69
2022/05/27 08:41:09;;;;;;;3.50;1.45;;;;;;;;;;5009753;28;20095;-73
2022/05/27 08:44:05;;;;;;;5.57;1.50;;;;;;;;;;5012415;28;20021;-70
2022/05/27 08:46:54;;;;;;;4.13;1.40;;;;;;;;;;5013848;28;20172;-72
2022/05/27 08:49:30;;;;;;;4.45;1.45;;;;;;;;;;5013925;28;20141;-73
2022/05/27 08:52:01;;;;;;;4.28;1.60;;;;;;;;;;5013746;28;20232;-72
2022/05/27 08:54:32;;;;;;;6.13;1.70;;;;;;;;;;5013658;28;20022;-72
2022/05/27 09:00:01;;;;;;;5.90;1.60;;;;;;;;;;5013875;28;20620;-74
2022/05/27 09:02:41;;;;;;;4.00;1.65;;;;;;;;;;5013728;28;20033;-70
2022/05/27 09:05:24;;;;;;;6.53;1.67;;;;;;;;;;5011833;28;20452;-73
2022/05/27 09:08:00;;;;;;;4.85;1.52;;;;;;;;;;5013556;28;20044;-70
2022/05/27 09:11:03;;;;;;;2.28;1.30;;;;;;;;;;5013402;28;20049;-73
2022/05/27 09:13:34;;;;;;;5.15;1.27;;;;;;;;;;5013127;28;20489;-71
2022/05/27 09:16:17;;;;;;;;;;;;;;;;;;5013179;28;20504;-74
2022/05/27 09:19:20;;;;;;;4.55;1.40;;;;;;;;;;5013066;28;19913;-69
2022/05/27 09:22:27;;;;;;;4.15;1.52;;;;;;;;;;5012662;28;20053;-69
2022/05/27 09:25:26;;;;;;;3.47;1.50;;;;;;;;;;5002303;28;20104;-73
2022/05/27 09:28:16;;;;;;;8.80;1.60;;;;;;;;;;5011596;28;20044;-74
2022/05/27 09:30:42;;;;;;;4.55;1.50;;;;;;;;;;5012789;28;20469;-72
2022/05/27 09:33:15;;;;;;;5.45;1.42;;;;;;;;;;5011471;28;20038;-74
2022/05/27 09:35:49;;;;;;;3.55;1.50;;;;;;;;;;5012614;28;20030;-72
2022/05/27 09:38:29;;;;;;;7.20;1.40;;;;;;;;;;5012894;28;20076;-73
2022/05/27 09:40:59;;;;;;;3.53;1.50;;;;;;;;;;5012758;28;20088;-73
2022/05/27 09:43:39;;;;;;;4.45;1.60;;;;;;;;;;5018611;28;20096;-73
2022/05/27 09:46:09;;;;;;;4.10;1.33;;;;;;;;;;5012533;28;20026;-73
2022/05/27 09:48:34;;;;;;;4.28;1.45;;;;;;;;;;5012684;28;20185;-75
2022/05/27 09:51:03;;;;;;;3.97;1.42;;;;;;;;;;5012257;28;20520;-73
2022/05/27 09:53:36;;;;;;;3.53;1.63;;;;;;;;;;5013531;28;20301;-74
2022/05/27 09:56:05;;;;;;;3.30;1.38;;;;;;;;;;5014413;28;20036;-72
2022/05/27 09:58:34;;;;;;;3.70;1.50;;;;;;;;;;5015842;28;20034;-69
2022/05/27 10:01:17;;;;;;;3.15;1.40;;;;;;;;;;5016737;28;20026;-69
2022/05/27 10:03:43;;;;;;;5.35;1.50;;;;;;;;;;5016380;28;20112;-70
2022/05/27 10:06:15;;;;;;;4.20;1.55;;;;;;;;;;5016284;28;20461;-68
2022/05/27 10:08:55;;;;;;;3.65;1.38;;;;;;;;;;5016889;28;20022;-70
2022/05/27 10:11:34;;;;;;;2.58;1.38;;;;;;;;;;5014990;28;20482;-66
2022/05/27 10:14:19;;;;;;;3.55;1.45;;;;;;;;;;5016818;28;20018;-69
2022/05/27 10:17:10;;;;;;;2.90;1.50;;;;;;;;;;5016417;28;20026;-69
2022/05/27 10:19:41;;;;;;;5.72;1.48;;;;;;;;;;5017426;28;20026;-69
2022/05/27 10:22:27;;;;;;;4.78;1.70;;;;;;;;;;5014434;28;20553;-72
2022/05/27 10:25:02;;;;;;;5.35;1.40;;;;;;;;;;5011740;28;20034;-69
2022/05/27 10:27:37;;;;;;;4.43;1.35;;;;;;;;;;5011396;28;20437;-68
2022/05/27 10:30:21;;;;;;;3.00;1.30;;;;;;;;;;5010554;28;20393;-66
2022/05/27 10:32:46;;;;;;;3.67;1.27;;;;;;;;;;5011943;28;20047;-69
2022/05/27 10:35:20;;;;;;;4.70;1.45;;;;;;;;;;5011587;28;20022;-66
2022/05/27 10:37:49;;;;;;;3.25;1.40;;;;;;;;;;5011453;28;20030;-66
2022/05/27 10:41:06;;;;;;;6.78;1.70;;;;;;;;;;5010060;28;20076;-66
2022/05/27 10:43:54;;;;;;;3.67;1.27;;;;;;;;;;4993291;28;20042;-73
2022/05/27 10:46:27;;;;;;;3.25;1.10;;;;;;;;;;5011241;28;20028;-71
2022/05/27 10:49:17;;;;;;;5.47;1.50;;;;;;;;;;5012089;28;20022;-71
2022/05/27 10:52:11;;;;;;;2.92;1.33;;;;;;;;;;5011251;28;20033;-69
2022/05/27 10:54:44;;;;;;;2.65;1.42;;;;;;;;;;5011439;28;20511;-71
2022/05/27 11:03:10;;;;;;;;;;;;;;;;;;5011512;28;20037;-73
2022/05/27 11:05:51;;;;;;;4.13;1.20;;;;;;;;;;5010734;28;19913;-71
2022/05/27 11:08:26;;;;;;;3.53;1.27;;;;;;;;;;5011055;28;20744;-72
2022/05/27 11:11:35;;;;;;;5.03;1.40;;;;;;;;;;5011519;28;20192;-71
2022/05/27 11:17:10;;;;;;;7.57;2.08;;;;;;;;;;5010900;28;20044;-70
2022/05/27 11:19:57;;;;;;;7.20;1.80;;;;;;;;;;5010872;28;20025;-68
2022/05/27 11:22:37;;;;;;;7.18;1.38;;;;;;;;;;5010749;28;20046;-69
2022/05/27 11:25:24;;;;;;;3.30;1.20;;;;;;;;;;5010860;28;20030;-70
2022/05/27 11:27:49;;;;;;;5.38;1.23;;;;;;;;;;5010847;28;20030;-69
2022/05/27 11:30:50;;;;;;;3.05;1.17;;;;;;;;;;5010621;28;20036;-72
2022/05/27 11:33:46;;;;;;;6.15;1.40;;;;;;;;;;4988240;28;20038;-72
2022/05/27 11:36:17;;;;;;;3.83;1.10;;;;;;;;;;5010276;28;20596;-73
2022/05/27 11:39:12;;;;;;;3.05;1.10;;;;;;;;;;5010618;28;20057;-71
2022/05/27 11:42:01;;;;;;;4.90;1.35;;;;;;;;;;5010593;28;20034;-70
2022/05/27 11:44:43;;;;;;;3.67;1.15;;;;;;;;;;5010803;28;20060;-72
2022/05/27 11:47:23;;;;;;;3.53;1.15;;;;;;;;;;5010222;28;20030;-72
2022/05/27 11:49:57;;;;;;;;;;;;;;;;;;5010948;28;20104;-70
2022/05/27 11:52:51;;;;;;;2.95;1.20;;;;;;;;;;5010157;28;19921;-71
2022/05/27 11:55:45;;;;;;;3.50;1.15;;;;;;;;;;5010564;28;20097;-71
2022/05/27 11:59:07;;;;;;;4.07;1.05;;;;;;;;;;5010362;28;20030;-73
2022/05/27 12:01:43;;;;;;;2.47;1.00;;;;;;;;;;4988045;28;20030;-70
2022/05/27 12:04:35;;;;;;;4.63;1.27;;;;;;;;;;4988093;28;20030;-70
2022/05/27 12:07:19;;;;;;;5.35;1.30;;;;;;;;;;5006069;28;20531;-73
2022/05/27 12:10:25;;;;;;;3.67;1.25;;;;;;;;;;5010270;28;20034;-72
2022/05/27 12:12:57;;;;;;;6.10;1.15;;;;;;;;;;4997849;28;20067;-72
2022/05/27 12:15:29;;;;;;;3.03;1.08;;;;;;;;;;5010660;28;20100;-71
2022/05/27 12:17:56;;;;;;;4.85;1.10;;;;;;;;;;5009126;28;20045;-72
2022/05/27 12:20:28;;;;;;;4.25;1.20;;;;;;;;;;5010012;28;20042;-72
2022/05/27 12:22:54;;;;;;;3.75;1.05;;;;;;;;;;5009969;28;20022;-71
2022/05/27 12:25:25;;;;;;;4.32;1.20;;;;;;;;;;5009787;28;20434;-69
2022/05/27 12:27:52;;;;;;;2.63;0.90;;;;;;;;;;5009760;28;20101;-73
2022/05/27 12:30:32;;;;;;;3.75;1.30;;;;;;;;;;5009961;28;20151;-73
2022/05/27 12:32:59;;;;;;;2.65;1.13;;;;;;;;;;5010424;28;20066;-73
2022/05/27 12:35:33;;;;;;;3.40;1.10;;;;;;;;;;5009976;28;20113;-70
2022/05/27 12:38:05;;;;;;;3.15;1.20;;;;;;;;;;5008437;28;20033;-73
2022/05/27 12:40:39;;;;;;;5.38;1.30;;;;;;;;;;5009586;28;20030;-74
2022/05/27 12:43:22;;;;;;;2.72;1.00;;;;;;;;;;5009887;28;20073;-72
2022/05/27 12:45:56;;;;;;;3.20;1.23;;;;;;;;;;5009675;28;20030;-70
2022/05/27 12:48:40;;;;;;;2.72;1.08;;;;;;;;;;5009647;28;20033;-71
2022/05/27 12:51:27;;;;;;;4.53;1.00;;;;;;;;;;5010177;28;20034;-72
2022/05/27 12:53:54;;;;;;;3.60;1.10;;;;;;;;;;5009707;28;20081;-70
2022/05/27 13:02:14;;;;;;;6.18;1.20;;;;;;;;;;5009687;28;20076;-70
2022/05/27 13:04:46;;;;;;;3.97;1.27;;;;;;;;;;5009538;28;20021;-72
2022/05/27 13:07:12;;;;;;;3.80;1.30;;;;;;;;;;5009097;28;20026;-72
2022/05/27 13:09:44;;;;;;;3.63;1.10;;;;;;;;;;5009624;28;20485;-73
2022/05/27 13:12:30;;;;;;;5.22;1.25;;;;;;;;;;5009672;28;20029;-73
2022/05/27 13:15:06;;;;;;;4.28;1.27;;;;;;;;;;5009382;28;20416;-71
2022/05/27 13:17:35;;;;;;;6.90;1.30;;;;;;;;;;5009198;28;20022;-73
2022/05/27 13:20:18;;;;;;;2.70;0.93;;;;;;;;;;5009295;28;20061;-72
2022/05/27 13:23:09;;;;;;;4.53;1.38;;;;;;;;;;5009373;28;20397;-73
2022/05/27 13:25:43;;;;;;;4.00;1.10;;;;;;;;;;5009572;28;20457;-73
2022/05/27 13:28:26;;;;;;;3.17;1.13;;;;;;;;;;5009457;28;20501;-72
2022/05/27 13:31:10;;;;;;;3.63;1.15;;;;;;;;;;5013048;28;20446;-72
2022/05/27 13:33:50;;;;;;;3.65;1.20;;;;;;;;;;5012898;28;20041;-72
2022/05/27 13:36:24;;;;;;;4.25;1.10;;;;;;;;;;5012693;28;20386;-72
2022/05/27 13:38:59;;;;;;;4.53;1.20;;;;;;;;;;5012842;28;20033;-70
2022/05/27 13:41:27;;;;;;;3.95;1.13;;;;;;;;;;5012853;28;20034;-73
2022/05/27 13:43:54;;;;;;;4.43;1.10;;;;;;;;;;5012765;28;20061;-72
2022/05/27 13:46:26;;;;;;;2.92;1.15;;;;;;;;;;5012750;28;20555;-73
2022/05/27 13:49:05;;;;;;;2.47;1.00;;;;;;;;;;5012436;28;20140;-72
2022/05/27 13:51:39;;;;;;;3.33;1.20;;;;;;;;;;5012472;28;20026;-73
2022/05/27 13:54:28;;;;;;;2.78;0.98;;;;;;;;;;5011167;28;20021;-73
2022/05/27 13:56:57;;;;;;;3.13;1.05;;;;;;;;;;5012371;28;20033;-73
2022/05/27 13:59:25;;;;;;;2.60;1.00;;;;;;;;;;5012800;28;20026;-72
2022/05/27 14:01:56;;;;;;;4.43;1.15;;;;;;;;;;5012693;28;20033;-73
2022/05/27 14:04:24;;;;;;;2.75;1.20;;;;;;;;;;5012513;28;20490;-71
2022/05/27 14:06:50;;;;;;;3.42;1.38;;;;;;;;;;5011951;28;20026;-72
2022/05/27 14:09:33;;;;;;;3.40;1.08;;;;;;;;;;5012025;28;20069;-73
2022/05/27 14:12:04;;;;;;;3.42;1.05;;;;;;;;;;5012149;28;20448;-72
2022/05/27 14:14:39;;;;;;;4.45;1.20;;;;;;;;;;5012140;28;20112;-69
2022/05/27 14:17:12;;;;;;;3.20;1.10;;;;;;;;;;5011977;28;20105;-73
2022/05/27 14:19:38;;;;;;;3.30;1.10;;;;;;;;;;5012204;28;20493;-72
2022/05/27 14:22:39;;;;;;;2.55;1.10;;;;;;;;;;5011950;28;20083;-73
2022/05/27 14:25:19;;;;;;;2.08;1.00;;;;;;;;;;5012037;28;20117;-72
2022/05/27 14:27:53;;;;;;;2.78;1.10;;;;;;;;;;5011736;28;20038;-74
2022/05/27 14:30:25;;;;;;;2.72;1.20;;;;;;;;;;5012415;28;20030;-74
2022/05/27 14:32:52;;;;;;;3.05;1.23;;;;;;;;;;5011811;28;20405;-71
2022/05/27 14:35:27;;;;;;;5.57;1.10;;;;;;;;;;5012071;28;20196;-72
2022/05/27 14:38:10;;;;;;;2.22;1.10;;;;;;;;;;5011615;28;20034;-72
2022/05/27 14:40:44;;;;;;;3.42;1.10;;;;;;;;;;5009784;28;20124;-68
2022/05/27 14:43:24;;;;;;;4.38;1.10;;;;;;;;;;5011399;28;20030;-72
2022/05/27 14:45:55;;;;;;;4.07;1.10;;;;;;;;;;5011961;28;20030;-71
2022/05/27 14:48:37;;;;;;;3.17;1.05;;;;;;;;;;5011548;28;20026;-72
2022/05/27 14:51:27;;;;;;;3.08;1.08;;;;;;;;;;5011746;28;20017;-72
2022/05/27 14:53:55;;;;;;;2.60;1.03;;;;;;;;;;5011602;28;20041;-72
2022/05/27 14:56:28;;;;;;;3.33;1.10;;;;;;;;;;5010040;28;20033;-72
2022/05/27 14:59:02;;;;;;;5.88;1.17;;;;;;;;;;5011416;28;20120;-71
2022/05/27 15:01:36;;;;;;;5.90;1.17;;;;;;;;;;5011419;28;20025;-71
2022/05/27 15:04:30;;;;;;;3.55;1.00;;;;;;;;;;5011126;28;20405;-71
2022/05/27 15:06:59;;;;;;;2.28;0.90;;;;;;;;;;5010478;28;20561;-72
2022/05/27 15:09:35;;;;;;;3.42;1.00;;;;;;;;;;5011135;28;20036;-73
2022/05/27 15:12:14;;;;;;;1.83;1.05;;;;;;;;;;5011381;28;20501;-71
2022/05/27 15:14:42;;;;;;;2.25;1.00;;;;;;;;;;5011180;28;20117;-73
2022/05/27 15:17:20;;;;;;;3.58;1.10;;;;;;;;;;5010906;28;20119;-70
2022/05/27 15:19:48;;;;;;;4.82;1.30;;;;;;;;;;5010879;28;20037;-71
2022/05/27 15:22:15;;;;;;;2.83;1.20;;;;;;;;;;5010791;28;20391;-72
2022/05/27 15:25:06;;;;;;;2.85;1.20;;;;;;;;;;5010922;28;20124;-70
2022/05/27 15:33:31;;;;;;;3.22;1.25;;;;;;;;;;5010982;28;20109;-71
2022/05/27 15:35:56;;;;;;;2.92;1.02;;;;;;;;;;5010588;28;20045;-68
2022/05/27 15:38:28;;;;;;;2.78;1.10;;;;;;;;;;5010388;28;20370;-69
2022/05/27 15:40:54;;;;;;;2.08;1.10;;;;;;;;;;5010803;28;20022;-72
2022/05/27 15:43:22;;;;;;;3.42;1.15;;;;;;;;;;5010561;28;20096;-73
2022/05/27 15:45:49;;;;;;;3.03;1.27;;;;;;;;;;5010735;28;20041;-67
2022/05/27 15:48:17;;;;;;;2.20;1.10;;;;;;;;;;5010508;28;20021;-72
2022/05/27 15:50:43;;;;;;;2.45;1.05;;;;;;;;;;5010301;28;20021;-71
2022/05/27 15:53:09;;;;;;;3.00;1.10;;;;;;;;;;5009658;28;20045;-67
2022/05/27 15:55:35;;;;;;;2.08;0.95;;;;;;;;;;5010460;28;20429;-68